sensor_id;sensor_type;location;lat;lon;timestamp;temperature;humidity
18733;DHT22;9495;51.210;2.934;2023-10-31T00:00:01;13.50;99.90
18733;DHT22;9495;51.210;2.934;2023-10-31T00:02:31;13.20;99.90
18733;DHT22;9495;51.210;2.934;2023-10-31T00:05:01;13.00;99.90
18733;DHT22;9495;51.210;2.934;2023-10-31T00:07:30;12.80;99.90
18733;DHT22;9495;51.210;2.934;2023-10-31T00:09:58;12.70;99.90
18733;DHT22;9495;51.210;2.934;2023-10-31T00:12:27;12.70;99.90
18733;DHT22;9495;51.210;2.934;2023-10-31T00:14:55;12.70;99.90
18733;DHT22;9495;51.210;2.934;2023-10-31T00:17:24;12.70;99.90
18733;DHT22;9495;51.210;2.934;2023-10-31T00:19:53;12.70;99.90
18733;DHT22;9495;51.210;2.934;2023-10-31T00:22:22;13.10;99.90
18733;DHT22;9495;51.210;2.934;2023-10-31T00:24:51;13.00;99.90
18733;DHT22;9495;51.210;2.934;2023-10-31T00:27:19;12.70;99.90
18733;DHT22;9495;51.210;2.934;2023-10-31T00:29:47;12.60;99.90
18733;DHT22;9495;51.210;2.934;2023-10-31T00:32:16;12.70;99.90
18733;DHT22;9495;51.210;2.934;2023-10-31T00:34:45;12.70;99.90
18733;DHT22;9495;51.210;2.934;2023-10-31T00:37:13;12.90;99.90
18733;DHT22;9495;51.210;2.934;2023-10-31T00:39:43;12.90;99.90
18733;DHT22;9495;51.210;2.934;2023-10-31T00:42:12;12.80;99.90
18733;DHT22;9495;51.210;2.934;2023-10-31T00:44:42;12.70;99.90
18733;DHT22;9495;51.210;2.934;2023-10-31T00:47:10;12.60;99.90
18733;DHT22;9495;51.210;2.934;2023-10-31T00:49:39;12.50;99.90
18733;DHT22;9495;51.210;2.934;2023-10-31T00:52:07;12.60;99.90
18733;DHT22;9495;51.210;2.934;2023-10-31T00:54:36;12.60;99.90
18733;DHT22;9495;51.210;2.934;2023-10-31T00:57:06;12.50;99.90
18733;DHT22;9495;51.210;2.934;2023-10-31T00:59:34;12.40;99.90
18733;DHT22;9495;51.210;2.934;2023-10-31T01:02:03;12.40;99.90
18733;DHT22;9495;51.210;2.934;2023-10-31T01:04:32;12.40;99.90
18733;DHT22;9495;51.210;2.934;2023-10-31T01:07:00;12.50;99.90
18733;DHT22;9495;51.210;2.934;2023-10-31T01:09:29;12.40;99.90
18733;DHT22;9495;51.210;2.934;2023-10-31T01:11:57;12.90;99.90
18733;DHT22;9495;51.210;2.934;2023-10-31T01:14:27;12.90;99.90
18733;DHT22;9495;51.210;2.934;2023-10-31T01:16:55;13.40;99.90
18733;DHT22;9495;51.210;2.934;2023-10-31T01:19:24;13.70;99.90
18733;DHT22;9495;51.210;2.934;2023-10-31T01:21:52;14.30;99.90
18733;DHT22;9495;51.210;2.934;2023-10-31T01:24:21;14.60;99.90
18733;DHT22;9495;51.210;2.934;2023-10-31T01:26:50;14.30;99.90
18733;DHT22;9495;51.210;2.934;2023-10-31T01:29:19;13.90;99.90
18733;DHT22;9495;51.210;2.934;2023-10-31T01:31:49;14.50;99.90
18733;DHT22;9495;51.210;2.934;2023-10-31T01:34:27;14.60;99.90
18733;DHT22;9495;51.210;2.934;2023-10-31T01:36:55;14.50;99.90
18733;DHT22;9495;51.210;2.934;2023-10-31T01:39:24;14.10;99.90
18733;DHT22;9495;51.210;2.934;2023-10-31T01:41:53;14.00;99.90
18733;DHT22;9495;51.210;2.934;2023-10-31T01:44:22;13.80;99.90
18733;DHT22;9495;51.210;2.934;2023-10-31T01:46:51;13.70;99.90
18733;DHT22;9495;51.210;2.934;2023-10-31T01:49:20;13.20;99.90
18733;DHT22;9495;51.210;2.934;2023-10-31T01:51:50;13.10;99.90
18733;DHT22;9495;51.210;2.934;2023-10-31T01:54:18;13.80;99.90
18733;DHT22;9495;51.210;2.934;2023-10-31T01:56:47;14.40;99.90
18733;DHT22;9495;51.210;2.934;2023-10-31T01:59:18;14.10;99.90
18733;DHT22;9495;51.210;2.934;2023-10-31T02:01:47;13.90;99.90
18733;DHT22;9495;51.210;2.934;2023-10-31T02:04:17;13.50;99.90
18733;DHT22;9495;51.210;2.934;2023-10-31T02:06:45;13.60;99.90
18733;DHT22;9495;51.210;2.934;2023-10-31T02:09:14;13.70;99.90
18733;DHT22;9495;51.210;2.934;2023-10-31T02:11:43;13.80;99.90
18733;DHT22;9495;51.210;2.934;2023-10-31T02:14:11;13.90;99.90
18733;DHT22;9495;51.210;2.934;2023-10-31T02:16:39;13.80;99.90
18733;DHT22;9495;51.210;2.934;2023-10-31T02:19:09;14.00;99.90
18733;DHT22;9495;51.210;2.934;2023-10-31T02:21:40;14.00;99.90
18733;DHT22;9495;51.210;2.934;2023-10-31T02:24:08;14.50;99.90
18733;DHT22;9495;51.210;2.934;2023-10-31T02:26:37;13.70;99.90
18733;DHT22;9495;51.210;2.934;2023-10-31T02:29:05;13.10;99.90
18733;DHT22;9495;51.210;2.934;2023-10-31T02:31:34;13.50;99.90
18733;DHT22;9495;51.210;2.934;2023-10-31T02:34:02;13.70;99.90
18733;DHT22;9495;51.210;2.934;2023-10-31T02:36:31;14.30;99.90
18733;DHT22;9495;51.210;2.934;2023-10-31T02:39:02;14.00;99.90
18733;DHT22;9495;51.210;2.934;2023-10-31T02:41:31;14.30;99.90
18733;DHT22;9495;51.210;2.934;2023-10-31T02:43:59;14.00;99.90
18733;DHT22;9495;51.210;2.934;2023-10-31T02:46:28;13.80;99.90
18733;DHT22;9495;51.210;2.934;2023-10-31T02:48:56;14.10;99.90
18733;DHT22;9495;51.210;2.934;2023-10-31T02:51:25;13.50;99.90
18733;DHT22;9495;51.210;2.934;2023-10-31T02:53:54;13.10;99.90
18733;DHT22;9495;51.210;2.934;2023-10-31T02:56:23;13.20;99.90
18733;DHT22;9495;51.210;2.934;2023-10-31T02:58:52;13.00;99.90
18733;DHT22;9495;51.210;2.934;2023-10-31T03:01:21;12.60;99.90
18733;DHT22;9495;51.210;2.934;2023-10-31T03:03:50;12.40;99.90
18733;DHT22;9495;51.210;2.934;2023-10-31T03:06:18;12.30;99.90
18733;DHT22;9495;51.210;2.934;2023-10-31T03:08:47;12.50;99.90
18733;DHT22;9495;51.210;2.934;2023-10-31T03:11:23;12.40;99.90
18733;DHT22;9495;51.210;2.934;2023-10-31T03:13:52;12.30;99.90
18733;DHT22;9495;51.210;2.934;2023-10-31T03:16:23;12.40;99.90
18733;DHT22;9495;51.210;2.934;2023-10-31T03:18:51;12.40;99.90
18733;DHT22;9495;51.210;2.934;2023-10-31T03:21:20;12.10;99.90
18733;DHT22;9495;51.210;2.934;2023-10-31T03:23:49;12.20;99.90
18733;DHT22;9495;51.210;2.934;2023-10-31T03:26:18;12.10;99.90
18733;DHT22;9495;51.210;2.934;2023-10-31T03:28:48;12.00;99.90
18733;DHT22;9495;51.210;2.934;2023-10-31T03:31:17;12.00;99.90
18733;DHT22;9495;51.210;2.934;2023-10-31T03:33:46;11.90;99.90
18733;DHT22;9495;51.210;2.934;2023-10-31T03:36:14;11.90;99.90
18733;DHT22;9495;51.210;2.934;2023-10-31T03:38:42;12.10;99.90
18733;DHT22;9495;51.210;2.934;2023-10-31T03:41:11;12.10;99.90
18733;DHT22;9495;51.210;2.934;2023-10-31T03:43:40;12.20;99.90
18733;DHT22;9495;51.210;2.934;2023-10-31T03:46:11;12.00;99.90
18733;DHT22;9495;51.210;2.934;2023-10-31T03:48:40;11.90;99.90
18733;DHT22;9495;51.210;2.934;2023-10-31T03:51:09;11.90;99.90
18733;DHT22;9495;51.210;2.934;2023-10-31T03:53:38;11.90;99.90
18733;DHT22;9495;51.210;2.934;2023-10-31T03:56:06;12.10;99.90
18733;DHT22;9495;51.210;2.934;2023-10-31T03:58:35;12.30;99.90
18733;DHT22;9495;51.210;2.934;2023-10-31T04:01:03;12.80;99.90
18733;DHT22;9495;51.210;2.934;2023-10-31T04:03:33;12.80;99.90
18733;DHT22;9495;51.210;2.934;2023-10-31T04:06:02;12.80;99.90
18733;DHT22;9495;51.210;2.934;2023-10-31T04:08:31;13.00;99.90
18733;DHT22;9495;51.210;2.934;2023-10-31T04:11:00;12.70;99.90
18733;DHT22;9495;51.210;2.934;2023-10-31T04:13:28;13.00;99.90
18733;DHT22;9495;51.210;2.934;2023-10-31T04:15:57;13.00;99.90
18733;DHT22;9495;51.210;2.934;2023-10-31T04:18:25;12.50;99.90
18733;DHT22;9495;51.210;2.934;2023-10-31T04:20:55;12.20;99.90
18733;DHT22;9495;51.210;2.934;2023-10-31T04:23:23;12.00;99.90
18733;DHT22;9495;51.210;2.934;2023-10-31T04:25:52;12.00;99.90
18733;DHT22;9495;51.210;2.934;2023-10-31T04:28:20;11.80;99.90
18733;DHT22;9495;51.210;2.934;2023-10-31T04:30:49;11.70;99.90
18733;DHT22;9495;51.210;2.934;2023-10-31T04:33:17;11.60;99.90
18733;DHT22;9495;51.210;2.934;2023-10-31T04:35:46;11.60;99.90
18733;DHT22;9495;51.210;2.934;2023-10-31T04:38:16;11.80;99.90
18733;DHT22;9495;51.210;2.934;2023-10-31T04:40:44;11.70;99.90
18733;DHT22;9495;51.210;2.934;2023-10-31T04:43:13;11.50;99.90
18733;DHT22;9495;51.210;2.934;2023-10-31T04:45:42;11.70;99.90
18733;DHT22;9495;51.210;2.934;2023-10-31T04:48:10;11.80;99.90
18733;DHT22;9495;51.210;2.934;2023-10-31T04:50:39;11.60;99.90
18733;DHT22;9495;51.210;2.934;2023-10-31T04:53:08;11.50;99.90
18733;DHT22;9495;51.210;2.934;2023-10-31T04:55:38;11.30;99.90
18733;DHT22;9495;51.210;2.934;2023-10-31T04:58:06;11.30;99.90
18733;DHT22;9495;51.210;2.934;2023-10-31T05:00:35;11.20;99.90
18733;DHT22;9495;51.210;2.934;2023-10-31T05:03:03;11.20;99.90
18733;DHT22;9495;51.210;2.934;2023-10-31T05:05:32;11.30;99.90
18733;DHT22;9495;51.210;2.934;2023-10-31T05:08:00;11.40;99.90
18733;DHT22;9495;51.210;2.934;2023-10-31T05:10:29;11.50;99.90
18733;DHT22;9495;51.210;2.934;2023-10-31T05:12:58;11.50;99.90
18733;DHT22;9495;51.210;2.934;2023-10-31T05:15:29;11.40;99.90
18733;DHT22;9495;51.210;2.934;2023-10-31T05:17:58;11.40;99.90
18733;DHT22;9495;51.210;2.934;2023-10-31T05:20:26;11.40;99.90
18733;DHT22;9495;51.210;2.934;2023-10-31T05:22:55;11.40;99.90
18733;DHT22;9495;51.210;2.934;2023-10-31T05:25:23;11.30;99.90
18733;DHT22;9495;51.210;2.934;2023-10-31T05:27:52;11.30;99.90
18733;DHT22;9495;51.210;2.934;2023-10-31T05:30:22;11.70;99.90
18733;DHT22;9495;51.210;2.934;2023-10-31T05:32:51;11.70;99.90
18733;DHT22;9495;51.210;2.934;2023-10-31T05:35:20;12.10;99.90
18733;DHT22;9495;51.210;2.934;2023-10-31T05:37:49;12.30;99.90
18733;DHT22;9495;51.210;2.934;2023-10-31T05:40:17;12.00;99.90
18733;DHT22;9495;51.210;2.934;2023-10-31T05:42:49;11.80;99.90
18733;DHT22;9495;51.210;2.934;2023-10-31T05:45:17;11.80;99.90
18733;DHT22;9495;51.210;2.934;2023-10-31T05:47:47;11.70;99.90
18733;DHT22;9495;51.210;2.934;2023-10-31T05:50:16;11.90;99.90
18733;DHT22;9495;51.210;2.934;2023-10-31T05:52:45;11.60;99.90
18733;DHT22;9495;51.210;2.934;2023-10-31T05:55:13;11.40;99.90
18733;DHT22;9495;51.210;2.934;2023-10-31T05:57:42;11.40;99.90
18733;DHT22;9495;51.210;2.934;2023-10-31T06:00:11;11.30;99.90
18733;DHT22;9495;51.210;2.934;2023-10-31T06:02:39;11.20;99.90
18733;DHT22;9495;51.210;2.934;2023-10-31T06:05:09;11.10;99.90
18733;DHT22;9495;51.210;2.934;2023-10-31T06:07:38;11.10;99.90
18733;DHT22;9495;51.210;2.934;2023-10-31T06:10:08;11.20;99.90
18733;DHT22;9495;51.210;2.934;2023-10-31T06:12:37;11.30;99.90
18733;DHT22;9495;51.210;2.934;2023-10-31T06:15:06;11.30;99.90
18733;DHT22;9495;51.210;2.934;2023-10-31T06:17:35;11.30;99.90
18733;DHT22;9495;51.210;2.934;2023-10-31T06:20:05;11.40;99.90
18733;DHT22;9495;51.210;2.934;2023-10-31T06:22:36;11.40;99.90
18733;DHT22;9495;51.210;2.934;2023-10-31T06:25:05;11.50;99.90
18733;DHT22;9495;51.210;2.934;2023-10-31T06:27:33;11.40;99.90
18733;DHT22;9495;51.210;2.934;2023-10-31T06:30:02;11.40;99.90
18733;DHT22;9495;51.210;2.934;2023-10-31T06:32:47;11.30;99.90
18733;DHT22;9495;51.210;2.934;2023-10-31T06:35:15;11.30;99.90
18733;DHT22;9495;51.210;2.934;2023-10-31T06:37:45;11.30;99.90
18733;DHT22;9495;51.210;2.934;2023-10-31T06:40:14;11.30;99.90
18733;DHT22;9495;51.210;2.934;2023-10-31T06:42:42;11.40;99.90
18733;DHT22;9495;51.210;2.934;2023-10-31T06:45:11;11.60;99.90
18733;DHT22;9495;51.210;2.934;2023-10-31T06:47:39;11.40;99.90
18733;DHT22;9495;51.210;2.934;2023-10-31T06:50:09;11.30;99.90
18733;DHT22;9495;51.210;2.934;2023-10-31T06:52:38;11.30;99.90
18733;DHT22;9495;51.210;2.934;2023-10-31T06:55:08;11.60;99.90
18733;DHT22;9495;51.210;2.934;2023-10-31T06:57:37;11.40;99.90
18733;DHT22;9495;51.210;2.934;2023-10-31T07:00:06;11.30;99.90
18733;DHT22;9495;51.210;2.934;2023-10-31T07:02:36;11.40;99.90
18733;DHT22;9495;51.210;2.934;2023-10-31T07:05:05;11.70;99.90
18733;DHT22;9495;51.210;2.934;2023-10-31T07:07:34;12.70;99.90
18733;DHT22;9495;51.210;2.934;2023-10-31T07:10:03;12.50;99.90
18733;DHT22;9495;51.210;2.934;2023-10-31T07:12:32;12.30;99.90
18733;DHT22;9495;51.210;2.934;2023-10-31T07:15:01;11.80;99.90
18733;DHT22;9495;51.210;2.934;2023-10-31T07:17:30;11.70;99.90
18733;DHT22;9495;51.210;2.934;2023-10-31T07:19:59;12.50;99.90
18733;DHT22;9495;51.210;2.934;2023-10-31T07:22:28;12.30;99.90
18733;DHT22;9495;51.210;2.934;2023-10-31T07:24:56;12.30;99.90
18733;DHT22;9495;51.210;2.934;2023-10-31T07:27:26;12.10;99.90
18733;DHT22;9495;51.210;2.934;2023-10-31T07:29:56;12.20;99.90
18733;DHT22;9495;51.210;2.934;2023-10-31T07:32:25;12.10;99.90
18733;DHT22;9495;51.210;2.934;2023-10-31T07:34:54;11.80;99.90
18733;DHT22;9495;51.210;2.934;2023-10-31T07:37:22;11.90;99.90
18733;DHT22;9495;51.210;2.934;2023-10-31T07:39:50;11.80;99.90
18733;DHT22;9495;51.210;2.934;2023-10-31T07:42:19;12.40;99.90
18733;DHT22;9495;51.210;2.934;2023-10-31T07:44:48;12.40;99.90
18733;DHT22;9495;51.210;2.934;2023-10-31T07:47:19;12.40;99.90
18733;DHT22;9495;51.210;2.934;2023-10-31T07:49:47;12.80;99.90
18733;DHT22;9495;51.210;2.934;2023-10-31T07:52:16;13.00;99.90
18733;DHT22;9495;51.210;2.934;2023-10-31T07:54:45;12.90;99.90
18733;DHT22;9495;51.210;2.934;2023-10-31T07:57:13;13.30;99.90
18733;DHT22;9495;51.210;2.934;2023-10-31T07:59:42;13.30;99.90
18733;DHT22;9495;51.210;2.934;2023-10-31T08:02:11;12.90;99.90
18733;DHT22;9495;51.210;2.934;2023-10-31T08:04:42;12.70;99.90
18733;DHT22;9495;51.210;2.934;2023-10-31T08:07:10;13.10;99.90
18733;DHT22;9495;51.210;2.934;2023-10-31T08:09:39;13.00;99.90
18733;DHT22;9495;51.210;2.934;2023-10-31T08:12:07;13.20;99.90
18733;DHT22;9495;51.210;2.934;2023-10-31T08:14:37;14.10;99.90
18733;DHT22;9495;51.210;2.934;2023-10-31T08:17:05;14.30;99.90
18733;DHT22;9495;51.210;2.934;2023-10-31T08:19:35;14.80;99.90
18733;DHT22;9495;51.210;2.934;2023-10-31T08:22:07;14.30;99.90
18733;DHT22;9495;51.210;2.934;2023-10-31T08:24:35;14.50;99.90
18733;DHT22;9495;51.210;2.934;2023-10-31T08:27:04;14.10;99.90
18733;DHT22;9495;51.210;2.934;2023-10-31T08:29:33;13.80;99.90
18733;DHT22;9495;51.210;2.934;2023-10-31T08:32:02;14.00;99.90
18733;DHT22;9495;51.210;2.934;2023-10-31T08:34:31;14.80;99.90
18733;DHT22;9495;51.210;2.934;2023-10-31T08:36:59;14.70;99.90
18733;DHT22;9495;51.210;2.934;2023-10-31T08:39:29;15.30;99.90
18733;DHT22;9495;51.210;2.934;2023-10-31T08:41:58;15.60;99.90
18733;DHT22;9495;51.210;2.934;2023-10-31T08:44:27;15.60;99.90
18733;DHT22;9495;51.210;2.934;2023-10-31T08:46:56;15.80;99.90
18733;DHT22;9495;51.210;2.934;2023-10-31T08:49:24;16.00;99.90
18733;DHT22;9495;51.210;2.934;2023-10-31T08:51:53;16.40;99.90
18733;DHT22;9495;51.210;2.934;2023-10-31T08:54:22;16.80;99.90
18733;DHT22;9495;51.210;2.934;2023-10-31T08:56:51;16.90;99.90
18733;DHT22;9495;51.210;2.934;2023-10-31T08:59:20;16.90;99.90
18733;DHT22;9495;51.210;2.934;2023-10-31T09:01:49;16.80;99.90
18733;DHT22;9495;51.210;2.934;2023-10-31T09:04:17;16.80;99.90
18733;DHT22;9495;51.210;2.934;2023-10-31T09:06:46;17.00;99.90
18733;DHT22;9495;51.210;2.934;2023-10-31T09:09:14;17.00;99.90
18733;DHT22;9495;51.210;2.934;2023-10-31T09:11:43;17.20;99.90
18733;DHT22;9495;51.210;2.934;2023-10-31T09:14:13;17.40;99.90
18733;DHT22;9495;51.210;2.934;2023-10-31T09:16:41;17.70;99.90
18733;DHT22;9495;51.210;2.934;2023-10-31T09:19:10;17.20;99.90
18733;DHT22;9495;51.210;2.934;2023-10-31T09:21:38;17.60;99.90
18733;DHT22;9495;51.210;2.934;2023-10-31T09:24:08;17.40;99.90
18733;DHT22;9495;51.210;2.934;2023-10-31T09:26:37;17.50;99.90
18733;DHT22;9495;51.210;2.934;2023-10-31T09:29:05;17.90;99.90
18733;DHT22;9495;51.210;2.934;2023-10-31T09:31:43;17.60;99.90
18733;DHT22;9495;51.210;2.934;2023-10-31T09:34:12;17.40;99.90
18733;DHT22;9495;51.210;2.934;2023-10-31T09:36:42;17.40;99.90
18733;DHT22;9495;51.210;2.934;2023-10-31T09:39:13;17.10;99.90
18733;DHT22;9495;51.210;2.934;2023-10-31T09:41:41;17.40;99.90
18733;DHT22;9495;51.210;2.934;2023-10-31T09:44:10;17.30;99.90
18733;DHT22;9495;51.210;2.934;2023-10-31T09:46:39;16.80;99.90
18733;DHT22;9495;51.210;2.934;2023-10-31T09:49:10;17.50;99.90
18733;DHT22;9495;51.210;2.934;2023-10-31T09:51:39;18.00;99.90
18733;DHT22;9495;51.210;2.934;2023-10-31T09:54:08;18.00;99.90
18733;DHT22;9495;51.210;2.934;2023-10-31T09:56:37;17.60;99.90
18733;DHT22;9495;51.210;2.934;2023-10-31T09:59:06;17.90;99.90
18733;DHT22;9495;51.210;2.934;2023-10-31T10:01:34;18.10;99.90
18733;DHT22;9495;51.210;2.934;2023-10-31T10:04:03;18.30;99.90
18733;DHT22;9495;51.210;2.934;2023-10-31T10:06:33;18.20;99.90
18733;DHT22;9495;51.210;2.934;2023-10-31T10:09:02;18.40;99.90
18733;DHT22;9495;51.210;2.934;2023-10-31T10:11:34;18.10;99.90
18733;DHT22;9495;51.210;2.934;2023-10-31T10:14:02;18.00;99.90
18733;DHT22;9495;51.210;2.934;2023-10-31T10:16:36;18.00;99.90
18733;DHT22;9495;51.210;2.934;2023-10-31T10:19:15;18.00;99.90
18733;DHT22;9495;51.210;2.934;2023-10-31T10:21:49;18.20;99.90
18733;DHT22;9495;51.210;2.934;2023-10-31T10:24:18;18.10;99.90
18733;DHT22;9495;51.210;2.934;2023-10-31T10:26:47;18.00;99.90
18733;DHT22;9495;51.210;2.934;2023-10-31T10:29:16;18.30;99.90
18733;DHT22;9495;51.210;2.934;2023-10-31T10:31:44;18.20;99.90
18733;DHT22;9495;51.210;2.934;2023-10-31T10:34:14;18.40;99.90
18733;DHT22;9495;51.210;2.934;2023-10-31T10:36:48;18.00;99.90
18733;DHT22;9495;51.210;2.934;2023-10-31T10:39:19;18.10;99.90
18733;DHT22;9495;51.210;2.934;2023-10-31T10:41:52;17.90;99.90
18733;DHT22;9495;51.210;2.934;2023-10-31T10:44:31;18.00;99.90
18733;DHT22;9495;51.210;2.934;2023-10-31T10:47:02;18.00;99.90
18733;DHT22;9495;51.210;2.934;2023-10-31T10:49:34;18.30;99.90
18733;DHT22;9495;51.210;2.934;2023-10-31T10:52:20;18.20;99.90
18733;DHT22;9495;51.210;2.934;2023-10-31T10:54:53;18.40;99.90
18733;DHT22;9495;51.210;2.934;2023-10-31T10:57:29;18.40;99.90
18733;DHT22;9495;51.210;2.934;2023-10-31T11:00:02;18.00;99.90
18733;DHT22;9495;51.210;2.934;2023-10-31T11:02:32;17.40;99.90
18733;DHT22;9495;51.210;2.934;2023-10-31T11:05:05;18.00;99.90
18733;DHT22;9495;51.210;2.934;2023-10-31T11:07:37;18.30;99.90
18733;DHT22;9495;51.210;2.934;2023-10-31T11:10:06;18.00;99.90
18733;DHT22;9495;51.210;2.934;2023-10-31T11:12:37;17.80;99.90
18733;DHT22;9495;51.210;2.934;2023-10-31T11:15:06;17.80;99.90
18733;DHT22;9495;51.210;2.934;2023-10-31T11:17:37;17.60;99.90
18733;DHT22;9495;51.210;2.934;2023-10-31T11:20:09;17.90;99.90
18733;DHT22;9495;51.210;2.934;2023-10-31T11:22:41;17.30;99.90
18733;DHT22;9495;51.210;2.934;2023-10-31T11:25:13;17.50;99.90
18733;DHT22;9495;51.210;2.934;2023-10-31T11:27:53;17.40;99.90
18733;DHT22;9495;51.210;2.934;2023-10-31T11:30:28;17.40;99.90
18733;DHT22;9495;51.210;2.934;2023-10-31T11:32:58;16.70;99.90
18733;DHT22;9495;51.210;2.934;2023-10-31T11:35:29;16.70;99.90
18733;DHT22;9495;51.210;2.934;2023-10-31T11:38:03;17.20;99.90
18733;DHT22;9495;51.210;2.934;2023-10-31T11:40:37;17.50;99.90
18733;DHT22;9495;51.210;2.934;2023-10-31T11:43:06;18.00;99.90
18733;DHT22;9495;51.210;2.934;2023-10-31T11:45:36;17.90;99.90
18733;DHT22;9495;51.210;2.934;2023-10-31T11:48:05;17.40;99.90
18733;DHT22;9495;51.210;2.934;2023-10-31T11:50:34;17.70;99.90
18733;DHT22;9495;51.210;2.934;2023-10-31T11:53:05;17.60;99.90
18733;DHT22;9495;51.210;2.934;2023-10-31T11:55:35;17.50;99.90
18733;DHT22;9495;51.210;2.934;2023-10-31T11:58:18;17.40;99.90
18733;DHT22;9495;51.210;2.934;2023-10-31T12:00:47;18.00;99.90
18733;DHT22;9495;51.210;2.934;2023-10-31T12:03:17;17.90;99.90
18733;DHT22;9495;51.210;2.934;2023-10-31T12:05:52;17.30;99.90
18733;DHT22;9495;51.210;2.934;2023-10-31T12:08:26;16.70;99.90
18733;DHT22;9495;51.210;2.934;2023-10-31T12:11:09;16.50;99.90
18733;DHT22;9495;51.210;2.934;2023-10-31T12:13:39;17.30;99.90
18733;DHT22;9495;51.210;2.934;2023-10-31T12:16:09;17.40;99.90
18733;DHT22;9495;51.210;2.934;2023-10-31T12:18:38;17.80;99.90
18733;DHT22;9495;51.210;2.934;2023-10-31T12:21:07;17.40;99.90
18733;DHT22;9495;51.210;2.934;2023-10-31T12:23:39;17.50;99.90
18733;DHT22;9495;51.210;2.934;2023-10-31T12:26:07;17.70;99.90
18733;DHT22;9495;51.210;2.934;2023-10-31T12:28:37;17.90;99.90
18733;DHT22;9495;51.210;2.934;2023-10-31T12:31:06;17.20;99.90
18733;DHT22;9495;51.210;2.934;2023-10-31T12:33:35;17.80;99.90
18733;DHT22;9495;51.210;2.934;2023-10-31T12:36:04;18.20;99.90
18733;DHT22;9495;51.210;2.934;2023-10-31T12:38:33;17.50;99.90
18733;DHT22;9495;51.210;2.934;2023-10-31T12:41:03;17.30;99.90
18733;DHT22;9495;51.210;2.934;2023-10-31T12:43:32;18.00;99.90
18733;DHT22;9495;51.210;2.934;2023-10-31T12:46:24;17.50;99.90
18733;DHT22;9495;51.210;2.934;2023-10-31T12:48:53;17.70;99.90
18733;DHT22;9495;51.210;2.934;2023-10-31T12:51:22;17.40;99.90
18733;DHT22;9495;51.210;2.934;2023-10-31T12:53:51;17.50;99.90
18733;DHT22;9495;51.210;2.934;2023-10-31T12:56:38;18.30;99.90
18733;DHT22;9495;51.210;2.934;2023-10-31T12:59:08;18.30;99.90
18733;DHT22;9495;51.210;2.934;2023-10-31T13:01:43;18.30;99.90
18733;DHT22;9495;51.210;2.934;2023-10-31T13:04:11;18.30;99.90
18733;DHT22;9495;51.210;2.934;2023-10-31T13:06:40;18.60;99.90
18733;DHT22;9495;51.210;2.934;2023-10-31T13:09:12;19.00;99.90
18733;DHT22;9495;51.210;2.934;2023-10-31T13:11:42;18.70;99.90
18733;DHT22;9495;51.210;2.934;2023-10-31T13:14:10;19.10;99.90
18733;DHT22;9495;51.210;2.934;2023-10-31T13:16:39;18.60;99.90
18733;DHT22;9495;51.210;2.934;2023-10-31T13:19:07;18.90;99.90
18733;DHT22;9495;51.210;2.934;2023-10-31T13:21:36;18.90;99.90
18733;DHT22;9495;51.210;2.934;2023-10-31T13:24:05;18.70;99.90
18733;DHT22;9495;51.210;2.934;2023-10-31T13:26:35;18.80;99.90
18733;DHT22;9495;51.210;2.934;2023-10-31T13:29:05;18.80;99.90
18733;DHT22;9495;51.210;2.934;2023-10-31T13:31:34;18.60;99.90
18733;DHT22;9495;51.210;2.934;2023-10-31T13:34:02;18.50;99.90
18733;DHT22;9495;51.210;2.934;2023-10-31T13:36:33;19.00;99.90
18733;DHT22;9495;51.210;2.934;2023-10-31T13:39:04;19.10;99.90
18733;DHT22;9495;51.210;2.934;2023-10-31T13:41:33;18.70;99.90
18733;DHT22;9495;51.210;2.934;2023-10-31T13:44:02;19.10;99.90
18733;DHT22;9495;51.210;2.934;2023-10-31T13:46:32;18.40;99.90
18733;DHT22;9495;51.210;2.934;2023-10-31T13:49:01;18.50;99.90
18733;DHT22;9495;51.210;2.934;2023-10-31T13:51:30;18.70;99.90
18733;DHT22;9495;51.210;2.934;2023-10-31T13:53:59;18.60;99.90
18733;DHT22;9495;51.210;2.934;2023-10-31T13:56:27;19.00;99.90
18733;DHT22;9495;51.210;2.934;2023-10-31T13:58:56;19.00;99.90
18733;DHT22;9495;51.210;2.934;2023-10-31T14:01:24;18.80;99.90
18733;DHT22;9495;51.210;2.934;2023-10-31T14:03:54;18.80;99.90
18733;DHT22;9495;51.210;2.934;2023-10-31T14:06:24;18.80;99.90
18733;DHT22;9495;51.210;2.934;2023-10-31T14:08:58;19.00;99.90
18733;DHT22;9495;51.210;2.934;2023-10-31T14:11:26;18.50;99.90
18733;DHT22;9495;51.210;2.934;2023-10-31T14:13:55;18.50;99.90
18733;DHT22;9495;51.210;2.934;2023-10-31T14:16:27;18.50;99.90
18733;DHT22;9495;51.210;2.934;2023-10-31T14:18:58;18.10;99.90
18733;DHT22;9495;51.210;2.934;2023-10-31T14:21:26;18.00;99.90
18733;DHT22;9495;51.210;2.934;2023-10-31T14:23:54;17.70;99.90
18733;DHT22;9495;51.210;2.934;2023-10-31T14:26:34;17.70;99.90
18733;DHT22;9495;51.210;2.934;2023-10-31T14:29:04;18.10;99.90
18733;DHT22;9495;51.210;2.934;2023-10-31T14:31:38;17.80;99.90
18733;DHT22;9495;51.210;2.934;2023-10-31T14:34:08;17.50;99.90
18733;DHT22;9495;51.210;2.934;2023-10-31T14:36:37;17.40;99.90
18733;DHT22;9495;51.210;2.934;2023-10-31T14:39:05;17.30;99.90
18733;DHT22;9495;51.210;2.934;2023-10-31T14:41:35;18.30;99.90
18733;DHT22;9495;51.210;2.934;2023-10-31T14:44:04;18.10;99.90
18733;DHT22;9495;51.210;2.934;2023-10-31T14:46:33;18.20;99.90
18733;DHT22;9495;51.210;2.934;2023-10-31T14:49:01;17.80;99.90
18733;DHT22;9495;51.210;2.934;2023-10-31T14:51:31;18.30;99.90
18733;DHT22;9495;51.210;2.934;2023-10-31T14:54:00;18.60;99.90
18733;DHT22;9495;51.210;2.934;2023-10-31T14:56:28;18.30;99.90
18733;DHT22;9495;51.210;2.934;2023-10-31T14:58:57;17.80;99.90
18733;DHT22;9495;51.210;2.934;2023-10-31T15:01:26;18.10;99.90
18733;DHT22;9495;51.210;2.934;2023-10-31T15:03:54;18.20;99.90
18733;DHT22;9495;51.210;2.934;2023-10-31T15:06:23;18.00;99.90
18733;DHT22;9495;51.210;2.934;2023-10-31T15:08:53;18.20;99.90
18733;DHT22;9495;51.210;2.934;2023-10-31T15:11:21;17.80;99.90
18733;DHT22;9495;51.210;2.934;2023-10-31T15:13:50;17.50;99.90
18733;DHT22;9495;51.210;2.934;2023-10-31T15:16:19;18.10;99.90
18733;DHT22;9495;51.210;2.934;2023-10-31T15:18:47;18.10;99.90
18733;DHT22;9495;51.210;2.934;2023-10-31T15:21:16;18.50;99.90
18733;DHT22;9495;51.210;2.934;2023-10-31T15:23:44;18.30;99.90
18733;DHT22;9495;51.210;2.934;2023-10-31T15:26:14;18.60;99.90
18733;DHT22;9495;51.210;2.934;2023-10-31T15:28:43;18.90;99.90
18733;DHT22;9495;51.210;2.934;2023-10-31T15:31:11;18.60;99.90
18733;DHT22;9495;51.210;2.934;2023-10-31T15:33:40;18.40;99.90
18733;DHT22;9495;51.210;2.934;2023-10-31T15:36:10;18.40;99.90
18733;DHT22;9495;51.210;2.934;2023-10-31T15:38:39;18.10;99.90
18733;DHT22;9495;51.210;2.934;2023-10-31T15:41:08;18.00;99.90
18733;DHT22;9495;51.210;2.934;2023-10-31T15:43:45;18.30;99.90
18733;DHT22;9495;51.210;2.934;2023-10-31T15:46:14;18.70;99.90
18733;DHT22;9495;51.210;2.934;2023-10-31T15:48:43;19.00;99.90
18733;DHT22;9495;51.210;2.934;2023-10-31T15:51:12;19.10;99.90
18733;DHT22;9495;51.210;2.934;2023-10-31T15:53:40;19.00;99.90
18733;DHT22;9495;51.210;2.934;2023-10-31T15:56:09;19.10;99.90
18733;DHT22;9495;51.210;2.934;2023-10-31T15:58:38;19.30;99.90